createdAt,value
2023-04-03T00:00:34.256Z,101948.97
2023-04-03T00:03:01.360Z,101935.66
2023-04-03T00:05:28.000Z,101944.16
2023-04-03T00:07:54.706Z,101953.81
2023-04-03T00:10:21.261Z,101945.19
2023-04-03T00:12:47.807Z,101955.59
2023-04-03T00:15:14.565Z,101956.84
2023-04-03T00:17:41.136Z,101953.31
2023-04-03T00:20:08.288Z,101954.03
2023-04-03T00:22:34.895Z,101951.81
2023-04-03T00:25:01.566Z,101956.44
2023-04-03T00:27:28.210Z,101952.03
2023-04-03T00:29:54.783Z,101957.25
2023-04-03T00:32:21.350Z,101958.06
2023-04-03T00:34:47.876Z,101952.56
2023-04-03T00:37:14.422Z,101955.34
2023-04-03T00:39:41.072Z,101961.50
2023-04-03T00:42:07.860Z,101956.69
2023-04-03T00:44:34.362Z,101956.69
2023-04-03T00:47:01.938Z,101962.25
2023-04-03T00:49:29.381Z,101966.47
2023-04-03T00:51:57.513Z,101966.78
2023-04-03T00:54:24.206Z,101961.84
2023-04-03T00:56:53.422Z,101960.63
2023-04-03T00:59:28.099Z,101963.41
2023-04-03T01:01:58.372Z,101966.59
2023-04-03T01:04:37.895Z,101967.44
2023-04-03T01:07:11.330Z,101972.25
2023-04-03T01:09:39.620Z,101973.59
2023-04-03T01:12:25.918Z,101975.97
2023-04-03T01:15:01.983Z,101979.25
2023-04-03T01:17:33.675Z,101978.72
2023-04-03T01:20:12.702Z,101979.03
2023-04-03T01:22:51.401Z,101976.91
2023-04-03T01:25:18.150Z,101968.69
2023-04-03T01:27:44.740Z,101979.03
2023-04-03T01:30:12.073Z,101982.44
2023-04-03T01:32:38.667Z,101983.16
2023-04-03T01:35:08.204Z,101979.25
2023-04-03T01:37:34.759Z,101990.34
2023-04-03T01:40:01.348Z,101981.91
2023-04-03T01:42:27.943Z,101992.38
2023-04-03T01:44:54.477Z,101996.78
2023-04-03T01:47:21.062Z,101995.84
2023-04-03T01:49:47.615Z,101997.81
2023-04-03T01:52:14.229Z,101997.28
2023-04-03T01:54:40.797Z,101998.00
2023-04-03T01:57:07.487Z,102001.72
2023-04-03T01:59:34.066Z,102001.78
2023-04-03T02:02:00.816Z,102006.03
2023-04-03T02:04:27.352Z,102002.34
2023-04-03T02:06:53.983Z,102007.66
2023-04-03T02:09:20.568Z,102006.03
2023-04-03T02:11:47.135Z,101998.66
2023-04-03T02:14:13.793Z,102006.41
2023-04-03T02:16:42.041Z,102008.16
2023-04-03T02:19:08.701Z,102008.28
2023-04-03T02:21:35.252Z,102005.78
2023-04-03T02:24:01.936Z,102015.84
2023-04-03T02:26:28.479Z,102012.25
2023-04-03T02:28:55.176Z,102019.03
2023-04-03T02:31:21.990Z,102017.00
2023-04-03T02:33:48.669Z,102011.97
2023-04-03T02:36:15.290Z,102017.38
2023-04-03T02:38:41.862Z,102024.56
2023-04-03T02:41:11.335Z,102028.06
2023-04-03T02:43:38.505Z,102021.28
2023-04-03T02:46:05.949Z,102025.59
2023-04-03T02:48:32.653Z,102026.72
2023-04-03T02:50:59.269Z,102021.78
2023-04-03T02:53:25.996Z,102029.75
2023-04-03T02:55:52.516Z,102035.81
2023-04-03T02:58:19.152Z,102036.03
2023-04-03T03:00:45.906Z,102043.88
2023-04-03T03:03:12.525Z,102039.59
2023-04-03T03:05:39.584Z,102038.97
2023-04-03T03:08:06.379Z,102038.97
2023-04-03T03:10:32.942Z,102036.59
2023-04-03T03:12:59.600Z,102040.78
2023-04-03T03:15:26.175Z,102047.06
2023-04-03T03:17:52.748Z,102052.34
2023-04-03T03:20:19.321Z,102047.31
2023-04-03T03:22:45.877Z,102054.31
2023-04-03T03:25:12.417Z,102051.75
2023-04-03T03:27:39.456Z,102056.88
2023-04-03T03:30:06.703Z,102047.00
2023-04-03T03:32:33.241Z,102047.31
2023-04-03T03:34:59.878Z,102055.09
2023-04-03T03:37:26.517Z,102058.44
2023-04-03T03:39:53.113Z,102054.53
2023-04-03T03:42:19.707Z,102059.66
2023-04-03T03:44:46.426Z,102055.34
2023-04-03T03:47:13.060Z,102059.56
2023-04-03T03:49:39.620Z,102051.97
2023-04-03T03:52:06.242Z,102067.06
2023-04-03T03:54:32.918Z,102063.66
2023-04-03T03:56:59.517Z,102056.91
2023-04-03T03:59:26.118Z,102064.59
2023-04-03T04:01:52.710Z,102066.13
2023-04-03T04:04:19.446Z,102059.38
2023-04-03T04:06:46.356Z,102066.97
2023-04-03T04:09:13.351Z,102066.97
2023-04-03T04:11:41.336Z,102062.78
2023-04-03T04:14:08.394Z,102066.03
2023-04-03T04:16:34.975Z,102075.47
2023-04-03T04:19:01.517Z,102074.53
2023-04-03T04:21:28.065Z,102066.66
2023-04-03T04:23:54.636Z,102073.34
2023-04-03T04:26:21.459Z,102073.34
2023-04-03T04:28:47.997Z,102075.16
2023-04-03T04:31:14.760Z,102077.94
2023-04-03T04:33:41.894Z,102076.53
2023-04-03T04:36:08.679Z,102086.06
2023-04-03T04:38:35.288Z,102089.13
2023-04-03T04:41:01.957Z,102086.38
2023-04-03T04:43:28.533Z,102099.72
2023-04-03T04:46:06.052Z,102083.13
2023-04-03T04:48:32.950Z,102083.38
2023-04-03T04:50:59.827Z,102093.03
2023-04-03T04:53:26.724Z,102099.75
2023-04-03T04:55:54.024Z,102091.44
2023-04-03T04:58:21.208Z,102085.22
2023-04-03T05:00:48.145Z,102098.66
2023-04-03T05:03:15.454Z,102099.81
2023-04-03T05:05:41.984Z,102092.81
2023-04-03T05:08:09.365Z,102096.41
2023-04-03T05:10:36.127Z,102088.59
2023-04-03T05:13:02.838Z,102100.38
2023-04-03T05:15:29.416Z,102103.25
2023-04-03T05:17:56.052Z,102111.34
2023-04-03T05:20:22.673Z,102105.56
2023-04-03T05:22:49.236Z,102099.41
2023-04-03T05:25:16.057Z,102094.50
2023-04-03T05:27:42.892Z,102105.97
2023-04-03T05:30:10.356Z,102103.31
2023-04-03T05:32:37.008Z,102112.50
2023-04-03T05:35:03.824Z,102113.06
2023-04-03T05:37:30.502Z,102110.09
2023-04-03T05:39:57.139Z,102117.56
2023-04-03T05:42:23.990Z,102109.66
2023-04-03T05:44:51.230Z,102122.91
2023-04-03T05:47:18.767Z,102115.59
2023-04-03T05:49:46.374Z,102116.25
2023-04-03T05:52:19.409Z,102118.31
2023-04-03T05:54:49.021Z,102118.66
2023-04-03T05:57:17.150Z,102125.84
2023-04-03T05:59:44.840Z,102126.50
2023-04-03T06:02:17.123Z,102122.03
2023-04-03T06:04:44.168Z,102126.72
2023-04-03T06:07:16.876Z,102127.63
2023-04-03T06:09:44.096Z,102126.63
2023-04-03T06:12:11.477Z,102124.91
2023-04-03T06:14:38.304Z,102124.53
2023-04-03T06:17:05.506Z,102130.53
2023-04-03T06:19:32.082Z,102128.06
2023-04-03T06:21:58.732Z,102125.75
2023-04-03T06:24:26.199Z,102135.69
2023-04-03T06:26:53.780Z,102120.84
2023-04-03T06:29:21.607Z,102133.66
2023-04-03T06:31:48.406Z,102125.06
2023-04-03T06:34:15.017Z,102124.38
2023-04-03T06:36:41.698Z,102128.63
2023-04-03T06:39:09.476Z,102137.31
2023-04-03T06:41:37.233Z,102137.19
2023-04-03T06:46:31.395Z,102131.59
2023-04-03T06:48:58.265Z,102139.09
2023-04-03T06:51:30.116Z,102142.38
2023-04-03T06:53:58.814Z,102155.38
2023-04-03T06:56:26.347Z,102145.16
2023-04-03T06:58:55.710Z,102157.81
2023-04-03T07:01:22.456Z,102154.28
2023-04-03T07:03:50.175Z,102181.28
2023-04-03T07:06:18.721Z,102162.31
2023-04-03T07:08:46.677Z,102163.72
2023-04-03T07:11:14.095Z,102155.53
2023-04-03T07:13:40.947Z,102147.44
2023-04-03T07:16:08.591Z,102165.69
2023-04-03T07:18:35.710Z,102161.19
2023-04-03T07:21:02.654Z,102165.44
2023-04-03T07:23:29.238Z,102181.41
2023-04-03T07:25:56.186Z,102177.28
2023-04-03T07:28:24.210Z,102163.66
2023-04-03T07:30:53.180Z,102195.81
2023-04-03T07:33:22.349Z,102168.28
2023-04-03T07:35:49.562Z,102197.91
2023-04-03T07:38:17.142Z,102199.97
2023-04-03T07:40:50.920Z,102189.59
2023-04-03T07:43:19.374Z,102224.19
2023-04-03T07:45:46.169Z,102188.34
2023-04-03T07:48:13.934Z,102193.47
2023-04-03T07:50:44.015Z,102192.06
2023-04-03T07:53:10.904Z,102200.31
2023-04-03T07:55:43.844Z,102204.34
2023-04-03T07:58:15.906Z,102181.31
2023-04-03T08:00:42.618Z,102188.41
2023-04-03T08:03:12.751Z,102192.13
2023-04-03T08:05:43.998Z,102187.22
2023-04-03T08:08:13.039Z,102242.94
2023-04-03T08:10:39.784Z,102208.25
2023-04-03T08:13:07.583Z,102211.75
2023-04-03T08:15:34.769Z,102219.22
2023-04-03T08:18:01.989Z,102231.78
2023-04-03T08:20:29.216Z,102213.03
2023-04-03T08:22:55.845Z,102217.72
2023-04-03T08:25:23.553Z,102221.47
2023-04-03T08:27:50.140Z,102215.59
2023-04-03T08:30:17.172Z,102222.06
2023-04-03T08:32:45.080Z,102251.63
2023-04-03T08:35:12.274Z,102217.50
2023-04-03T08:37:39.855Z,102223.59
2023-04-03T08:40:09.888Z,102208.84
2023-04-03T08:42:42.856Z,102216.06
2023-04-03T08:45:28.488Z,102215.97
2023-04-03T08:48:08.347Z,102207.59
2023-04-03T08:50:40.585Z,102208.16
2023-04-03T08:53:15.606Z,102200.69
2023-04-03T08:55:49.174Z,102194.06
2023-04-03T08:58:25.536Z,102195.84
2023-04-03T09:00:59.964Z,102192.09
2023-04-03T09:03:27.194Z,102209.66
2023-04-03T09:06:21.481Z,102211.19
2023-04-03T09:09:03.125Z,102201.19
2023-04-03T09:11:44.928Z,102198.88
2023-04-03T09:14:46.857Z,102203.81
2023-04-03T09:17:32.428Z,102197.28
2023-04-03T09:20:22.414Z,102194.59
2023-04-03T09:22:52.750Z,102198.09
2023-04-03T09:25:33.708Z,102196.41
2023-04-03T09:28:04.664Z,102197.13
2023-04-03T09:30:31.594Z,102197.66
2023-04-03T09:32:58.994Z,102209.41
2023-04-03T09:35:47.178Z,102194.22
2023-04-03T09:38:16.753Z,102197.66
2023-04-03T09:40:49.478Z,102212.19
2023-04-03T09:43:18.960Z,102204.06
2023-04-03T09:45:48.342Z,102204.41
2023-04-03T09:48:16.600Z,102193.81
2023-04-03T09:50:57.536Z,102195.59
2023-04-03T09:53:39.483Z,102199.16
2023-04-03T09:56:28.108Z,102213.50
2023-04-03T09:59:00.615Z,102192.47
2023-04-03T10:01:38.756Z,102207.38
2023-04-03T10:04:07.198Z,102175.75
2023-04-03T10:06:37.002Z,102184.69
2023-04-03T10:09:07.422Z,102176.84
2023-04-03T10:11:34.986Z,102179.03
2023-04-03T10:14:05.928Z,102183.94
2023-04-03T10:16:38.292Z,102217.84
2023-04-03T10:19:47.119Z,102207.63
2023-04-03T10:22:28.889Z,102219.63
2023-04-03T10:25:05.558Z,102194.63
2023-04-03T10:27:53.768Z,102198.63
2023-04-03T10:30:37.754Z,102191.50
2023-04-03T10:33:37.223Z,102159.75
2023-04-03T10:36:35.849Z,102157.63
2023-04-03T10:39:17.344Z,102160.91
2023-04-03T10:42:05.747Z,102159.25
2023-04-03T10:45:17.157Z,102158.13
2023-04-03T10:48:30.604Z,102156.41
2023-04-03T10:51:09.038Z,102149.03
2023-04-03T10:54:01.507Z,102160.94
2023-04-03T10:56:28.227Z,102154.94
2023-04-03T10:59:01.905Z,102153.88
2023-04-03T11:01:35.857Z,102151.44
2023-04-03T11:04:07.089Z,102155.47
2023-04-03T11:06:42.159Z,102160.28
2023-04-03T11:09:27.384Z,102151.69
2023-04-03T11:12:18.379Z,102130.25
2023-04-03T11:14:47.849Z,102152.72
2023-04-03T11:17:23.803Z,102155.16
2023-04-03T11:20:21.072Z,102158.44
2023-04-03T11:22:55.689Z,102146.75
2023-04-03T11:25:25.191Z,102154.69
2023-04-03T11:27:52.756Z,102141.00
2023-04-03T11:30:24.062Z,102149.41
2023-04-03T11:33:03.213Z,102150.75
2023-04-03T11:35:31.348Z,102140.03
2023-04-03T11:38:01.427Z,102132.88
2023-04-03T11:40:35.220Z,102145.59
2023-04-03T11:43:22.438Z,102148.22
2023-04-03T11:46:05.488Z,102144.09
2023-04-03T11:48:34.627Z,102153.91
2023-04-03T11:51:14.049Z,102144.38
2023-04-03T11:53:41.945Z,102150.59
2023-04-03T11:56:34.734Z,102142.25
2023-04-03T11:59:14.496Z,102130.59
2023-04-03T12:01:54.385Z,102129.72
2023-04-03T12:04:24.096Z,102127.03
2023-04-03T12:06:55.898Z,102129.69
2023-04-03T12:09:25.737Z,102130.69
2023-04-03T12:11:53.000Z,102120.81
2023-04-03T12:14:23.632Z,102136.00
2023-04-03T12:16:52.281Z,102132.28
2023-04-03T12:19:24.312Z,102134.25
2023-04-03T12:21:58.472Z,102132.72
2023-04-03T12:24:31.106Z,102132.84
2023-04-03T12:27:00.545Z,102130.59
2023-04-03T12:29:28.990Z,102126.00
2023-04-03T12:32:04.974Z,102119.19
2023-04-03T12:34:34.322Z,102112.19
2023-04-03T12:37:09.818Z,102112.53
2023-04-03T12:39:45.510Z,102113.81
2023-04-03T12:42:22.818Z,102114.13
2023-04-03T12:44:55.409Z,102106.06
2023-04-03T12:47:39.019Z,102117.13
2023-04-03T12:50:31.145Z,102107.16
2023-04-03T12:53:00.772Z,102114.63
2023-04-03T12:55:27.549Z,102108.88
2023-04-03T12:57:54.110Z,102109.03
2023-04-03T13:00:22.859Z,102108.81
2023-04-03T13:02:49.864Z,102110.06
2023-04-03T13:05:19.552Z,102108.28
2023-04-03T13:07:51.081Z,102111.19
2023-04-03T13:10:19.403Z,102109.31
2023-04-03T13:12:55.691Z,102116.13
2023-04-03T13:15:26.720Z,102109.09
2023-04-03T13:17:54.792Z,102119.75
2023-04-03T13:20:27.111Z,102106.44
2023-04-03T13:23:03.555Z,102097.38
2023-04-03T13:25:34.736Z,102108.56
2023-04-03T13:28:10.564Z,102108.28
2023-04-03T13:30:42.307Z,102097.31
2023-04-03T13:33:25.042Z,102101.31
2023-04-03T13:36:07.983Z,102103.38
2023-04-03T13:38:35.151Z,102092.69
2023-04-03T13:41:06.353Z,102110.16
2023-04-03T13:43:36.486Z,102118.38
2023-04-03T13:46:28.016Z,102102.75
2023-04-03T13:48:56.858Z,102109.63
2023-04-03T13:51:26.807Z,102108.88
2023-04-03T13:53:57.366Z,102098.91
2023-04-03T13:56:53.207Z,102112.38
2023-04-03T13:59:19.695Z,102102.19
2023-04-03T14:02:32.020Z,102094.34
2023-04-03T14:05:02.566Z,102103.44
2023-04-03T14:07:32.111Z,102106.78
2023-04-03T14:09:59.449Z,102093.28
2023-04-03T14:12:40.092Z,102094.00
2023-04-03T14:15:19.426Z,102099.69
2023-04-03T14:17:46.573Z,102102.75
2023-04-03T14:20:20.852Z,102105.34
2023-04-03T14:22:48.070Z,102102.63
2023-04-03T14:25:14.706Z,102098.31
2023-04-03T14:27:44.420Z,102104.59
2023-04-03T14:30:17.714Z,102092.75
2023-04-03T14:32:44.979Z,102110.59
2023-04-03T14:35:11.719Z,102102.34
2023-04-03T14:37:38.562Z,102098.78
2023-04-03T14:40:06.836Z,102097.84
2023-04-03T14:42:36.776Z,102120.19
2023-04-03T14:45:07.258Z,102093.91
2023-04-03T14:47:34.963Z,102115.16
2023-04-03T14:50:03.805Z,102107.47
2023-04-03T14:52:36.757Z,102105.03
2023-04-03T14:55:06.765Z,102098.91
2023-04-03T14:57:34.503Z,102101.31
2023-04-03T15:00:02.396Z,102093.81
2023-04-03T15:02:35.415Z,102093.44
2023-04-03T15:05:05.142Z,102079.44
2023-04-03T15:07:35.540Z,102085.19
2023-04-03T15:10:15.420Z,102081.91
2023-04-03T15:12:42.862Z,102084.84
2023-04-03T15:15:10.293Z,102090.41
2023-04-03T15:17:37.545Z,102098.47
2023-04-03T15:20:13.333Z,102099.41
2023-04-03T15:22:39.929Z,102082.41
2023-04-03T15:25:06.827Z,102088.16
2023-04-03T15:27:33.393Z,102096.19
2023-04-03T15:29:59.935Z,102096.47
2023-04-03T15:32:26.534Z,102096.88
2023-04-03T15:34:56.019Z,102085.44
2023-04-03T15:37:23.512Z,102089.72
2023-04-03T15:39:50.334Z,102088.75
2023-04-03T15:42:16.932Z,102089.59
2023-04-03T15:44:43.536Z,102105.41
2023-04-03T15:47:10.321Z,102087.81
2023-04-03T15:49:37.594Z,102093.88
2023-04-03T15:52:04.793Z,102101.75
2023-04-03T15:54:32.369Z,102101.38
2023-04-03T15:56:59.110Z,102092.94
2023-04-03T15:59:26.090Z,102102.59
2023-04-03T16:01:53.747Z,102091.03
2023-04-03T16:04:22.006Z,102097.41
2023-04-03T16:06:50.026Z,102097.94
2023-04-03T16:09:16.909Z,102097.94
2023-04-03T16:11:44.489Z,102101.22
2023-04-03T16:14:11.484Z,102098.91
2023-04-03T16:16:41.026Z,102094.97
2023-04-03T16:19:07.909Z,102103.41
2023-04-03T16:21:34.961Z,102100.16
2023-04-03T16:24:02.480Z,102116.31
2023-04-03T16:26:29.611Z,102105.72
2023-04-03T16:28:56.256Z,102105.84
2023-04-03T16:31:25.044Z,102101.63
2023-04-03T16:33:55.473Z,102106.66
2023-04-03T16:36:22.206Z,102102.97
2023-04-03T16:38:48.791Z,102111.13
2023-04-03T16:41:15.572Z,102111.66
2023-04-03T16:46:09.881Z,102105.75
2023-04-03T16:48:36.625Z,102111.00
2023-04-03T16:51:03.269Z,102108.69
2023-04-03T16:53:29.973Z,102108.94
2023-04-03T16:55:58.875Z,102112.72
2023-04-03T16:58:26.293Z,102113.81
2023-04-03T17:00:56.673Z,102114.88
2023-04-03T17:03:26.651Z,102108.22
2023-04-03T17:05:53.468Z,102111.47
2023-04-03T17:08:20.151Z,102119.09
2023-04-03T17:10:47.931Z,102113.63
2023-04-03T17:13:15.638Z,102108.22
2023-04-03T17:15:42.685Z,102111.34
2023-04-03T17:18:09.688Z,102115.97
2023-04-03T17:20:38.721Z,102116.34
2023-04-03T17:23:06.643Z,102110.34
2023-04-03T17:25:33.454Z,102111.31
2023-04-03T17:28:00.022Z,102122.69
2023-04-03T17:30:26.710Z,102125.28
2023-04-03T17:32:53.353Z,102128.00
2023-04-03T17:35:20.068Z,102121.66
2023-04-03T17:37:50.045Z,102128.00
2023-04-03T17:40:18.663Z,102134.69
2023-04-03T17:42:45.639Z,102125.63
2023-04-03T17:45:12.333Z,102122.84
2023-04-03T17:47:39.197Z,102125.94
2023-04-03T17:50:06.790Z,102125.25
2023-04-03T17:52:33.877Z,102121.59
2023-04-03T17:55:00.517Z,102131.25
2023-04-03T17:57:27.130Z,102133.00
2023-04-03T17:59:54.415Z,102127.25
2023-04-03T18:02:21.199Z,102135.28
2023-04-03T18:04:47.912Z,102134.75
2023-04-03T18:07:14.654Z,102133.25
2023-04-03T18:09:42.188Z,102139.25
2023-04-03T18:12:10.112Z,102135.44
2023-04-03T18:14:38.731Z,102138.16
2023-04-03T18:17:05.981Z,102134.88
2023-04-03T18:19:33.512Z,102145.97
2023-04-03T18:22:14.770Z,102140.00
2023-04-03T18:24:43.606Z,102140.69
2023-04-03T18:27:14.506Z,102147.44
2023-04-03T18:29:43.900Z,102136.03
2023-04-03T18:32:13.988Z,102127.34
2023-04-03T18:34:40.978Z,102142.16
2023-04-03T18:37:07.736Z,102141.84
2023-04-03T18:39:34.535Z,102147.38
2023-04-03T18:42:07.633Z,102141.63
2023-04-03T18:44:36.245Z,102142.59
2023-04-03T18:47:03.039Z,102143.63
2023-04-03T18:49:32.853Z,102136.16
2023-04-03T18:51:59.765Z,102140.50
2023-04-03T18:54:29.332Z,102130.69
2023-04-03T18:56:56.093Z,102142.44
2023-04-03T18:59:24.817Z,102131.66
2023-04-03T19:01:52.005Z,102139.22
2023-04-03T19:04:18.657Z,102139.31
2023-04-03T19:06:45.687Z,102134.41
2023-04-03T19:09:12.432Z,102124.03
2023-04-03T19:11:39.070Z,102133.91
2023-04-03T19:14:16.178Z,102135.53
2023-04-03T19:16:43.834Z,102134.75
2023-04-03T19:19:10.658Z,102125.72
2023-04-03T19:21:41.133Z,102136.41
2023-04-03T19:24:10.927Z,102143.22
2023-04-03T19:26:37.615Z,102144.28
2023-04-03T19:29:04.633Z,102141.38
2023-04-03T19:31:33.703Z,102145.34
2023-04-03T19:34:01.022Z,102139.03
2023-04-03T19:36:27.625Z,102143.16
2023-04-03T19:38:54.268Z,102153.09
2023-04-03T19:41:23.114Z,102149.00
2023-04-03T19:43:52.582Z,102151.81
2023-04-03T19:46:22.391Z,102150.31
2023-04-03T19:48:48.939Z,102149.22
2023-04-03T19:51:23.140Z,102153.69
2023-04-03T19:53:49.880Z,102151.56
2023-04-03T19:56:17.040Z,102158.13
2023-04-03T19:58:46.716Z,102155.19
2023-04-03T20:01:13.272Z,102155.53
2023-04-03T20:03:42.749Z,102154.63
2023-04-03T20:06:09.365Z,102155.91
2023-04-03T20:08:37.164Z,102153.34
2023-04-03T20:11:03.919Z,102151.78
2023-04-03T20:13:30.861Z,102146.75
2023-04-03T20:15:58.413Z,102148.50
2023-04-03T20:18:25.226Z,102158.38
2023-04-03T20:21:00.345Z,102154.50
2023-04-03T20:23:28.056Z,102162.59
2023-04-03T20:26:08.801Z,102158.94
2023-04-03T20:28:38.168Z,102152.63
2023-04-03T20:31:06.272Z,102158.59
2023-04-03T20:33:32.854Z,102157.75
2023-04-03T20:35:59.566Z,102158.44
2023-04-03T20:38:26.299Z,102152.34
2023-04-03T20:40:52.978Z,102158.88
2023-04-03T20:43:21.766Z,102151.94
2023-04-03T20:45:49.320Z,102148.28
2023-04-03T20:48:18.115Z,102147.19
2023-04-03T20:50:45.956Z,102153.84
2023-04-03T20:53:13.398Z,102151.84
2023-04-03T20:55:40.227Z,102150.84
2023-04-03T20:58:06.937Z,102155.81
2023-04-03T21:00:33.619Z,102156.50
2023-04-03T21:03:01.481Z,102152.72
2023-04-03T21:05:30.333Z,102148.22
2023-04-03T21:08:35.803Z,102150.91
2023-04-03T21:11:40.502Z,102144.22
2023-04-03T21:14:45.879Z,102147.38
2023-04-03T21:17:12.481Z,102151.38
2023-04-03T21:19:46.138Z,102149.09
2023-04-03T21:22:13.856Z,102152.38
2023-04-03T21:24:41.032Z,102152.25
2023-04-03T21:27:08.264Z,102143.84
2023-04-03T21:29:34.875Z,102149.31
2023-04-03T21:32:01.964Z,102154.69
2023-04-03T21:34:30.306Z,102151.63
2023-04-03T21:37:01.450Z,102150.78
2023-04-03T21:39:28.418Z,102151.63
2023-04-03T21:41:55.122Z,102151.91
2023-04-03T21:44:22.708Z,102151.13
2023-04-03T21:46:54.353Z,102150.81
2023-04-03T21:49:24.986Z,102159.25
2023-04-03T21:51:52.408Z,102160.28
2023-04-03T21:54:20.041Z,102166.44
2023-04-03T21:56:51.555Z,102156.41
2023-04-03T21:59:18.793Z,102164.00
2023-04-03T22:01:45.630Z,102157.00
2023-04-03T22:04:12.637Z,102160.09
2023-04-03T22:06:39.184Z,102160.41
2023-04-03T22:09:05.792Z,102154.97
2023-04-03T22:11:32.680Z,102151.72
2023-04-03T22:14:00.179Z,102166.59
2023-04-03T22:16:27.532Z,102161.78
2023-04-03T22:18:54.717Z,102159.53
2023-04-03T22:21:22.301Z,102161.59
2023-04-03T22:23:49.185Z,102162.00
2023-04-03T22:26:16.245Z,102164.06
2023-04-03T22:28:47.522Z,102169.81
2023-04-03T22:31:16.324Z,102158.28
2023-04-03T22:33:45.175Z,102161.81
2023-04-03T22:36:13.412Z,102166.53
2023-04-03T22:38:43.715Z,102162.41
2023-04-03T22:41:10.772Z,102160.16
2023-04-03T22:43:38.036Z,102159.66
2023-04-03T22:46:08.599Z,102160.88
2023-04-03T22:48:36.827Z,102160.97
2023-04-03T22:51:09.986Z,102166.59
2023-04-03T22:53:37.326Z,102163.19
2023-04-03T22:56:08.582Z,102156.84
2023-04-03T22:58:35.232Z,102166.50
2023-04-03T23:01:08.038Z,102165.78
2023-04-03T23:03:39.346Z,102157.66
2023-04-03T23:06:06.735Z,102157.03
2023-04-03T23:08:35.161Z,102157.94
2023-04-03T23:11:02.485Z,102155.69
2023-04-03T23:13:29.571Z,102159.47
2023-04-03T23:16:01.827Z,102155.25
2023-04-03T23:18:30.878Z,102154.75
2023-04-03T23:21:01.539Z,102155.00
2023-04-03T23:23:28.314Z,102150.00
2023-04-03T23:25:59.872Z,102155.31
2023-04-03T23:28:27.730Z,102148.53
2023-04-03T23:31:06.767Z,102156.31
2023-04-03T23:33:33.943Z,102150.28
2023-04-03T23:36:06.628Z,102153.03
2023-04-03T23:38:33.780Z,102150.97
2023-04-03T23:41:00.665Z,102147.88
2023-04-03T23:43:27.797Z,102141.41
2023-04-03T23:45:55.043Z,102146.00
2023-04-03T23:48:21.599Z,102141.88
2023-04-03T23:50:49.491Z,102142.16
2023-04-03T23:53:16.079Z,102150.88
2023-04-03T23:55:42.874Z,102140.00
2023-04-03T23:58:10.845Z,102134.25
